sensor_id;sensor_type;location;lat;lon;timestamp;P1;durP1;ratioP1;P2;durP2;ratioP2
55663;SDS011;41540;57.880;12.164;2023-07-29T00:02:51;3.97;;;3.40;;
55663;SDS011;41540;57.880;12.164;2023-07-29T00:23:48;4.63;;;3.30;;
55663;SDS011;41540;57.880;12.164;2023-07-29T00:33:58;3.58;;;2.90;;
55663;SDS011;41540;57.880;12.164;2023-07-29T00:44:19;6.28;;;3.25;;
55663;SDS011;41540;57.880;12.164;2023-07-29T00:54:19;4.88;;;3.33;;
55663;SDS011;41540;57.880;12.164;2023-07-29T01:04:20;2.55;;;2.35;;
55663;SDS011;41540;57.880;12.164;2023-07-29T01:24:46;4.72;;;3.20;;
55663;SDS011;41540;57.880;12.164;2023-07-29T01:45:05;3.85;;;3.50;;
55663;SDS011;41540;57.880;12.164;2023-07-29T01:55:06;5.38;;;3.75;;
55663;SDS011;41540;57.880;12.164;2023-07-29T02:05:06;4.73;;;3.13;;
55663;SDS011;41540;57.880;12.164;2023-07-29T02:15:07;3.93;;;3.47;;
55663;SDS011;41540;57.880;12.164;2023-07-29T02:25:08;3.90;;;3.10;;
55663;SDS011;41540;57.880;12.164;2023-07-29T02:35:09;4.93;;;4.43;;
55663;SDS011;41540;57.880;12.164;2023-07-29T02:45:10;3.83;;;3.53;;
55663;SDS011;41540;57.880;12.164;2023-07-29T02:55:11;3.30;;;3.00;;
55663;SDS011;41540;57.880;12.164;2023-07-29T03:05:12;3.78;;;3.47;;
55663;SDS011;41540;57.880;12.164;2023-07-29T03:15:12;3.78;;;3.25;;
55663;SDS011;41540;57.880;12.164;2023-07-29T03:25:13;3.05;;;2.72;;
55663;SDS011;41540;57.880;12.164;2023-07-29T03:35:13;2.53;;;2.33;;
55663;SDS011;41540;57.880;12.164;2023-07-29T03:45:14;5.43;;;2.35;;
55663;SDS011;41540;57.880;12.164;2023-07-29T03:55:15;2.63;;;2.30;;
55663;SDS011;41540;57.880;12.164;2023-07-29T04:05:15;2.63;;;2.00;;
55663;SDS011;41540;57.880;12.164;2023-07-29T04:15:16;2.67;;;2.38;;
55663;SDS011;41540;57.880;12.164;2023-07-29T04:25:16;2.42;;;2.22;;
55663;SDS011;41540;57.880;12.164;2023-07-29T04:35:16;2.38;;;2.08;;
55663;SDS011;41540;57.880;12.164;2023-07-29T04:45:17;2.53;;;2.30;;
55663;SDS011;41540;57.880;12.164;2023-07-29T04:55:17;2.80;;;1.88;;
55663;SDS011;41540;57.880;12.164;2023-07-29T05:05:18;2.00;;;1.87;;
55663;SDS011;41540;57.880;12.164;2023-07-29T05:25:18;3.08;;;1.85;;
55663;SDS011;41540;57.880;12.164;2023-07-29T05:35:19;2.55;;;2.33;;
55663;SDS011;41540;57.880;12.164;2023-07-29T05:45:19;2.95;;;2.03;;
55663;SDS011;41540;57.880;12.164;2023-07-29T05:55:20;2.30;;;1.83;;
55663;SDS011;41540;57.880;12.164;2023-07-29T06:05:20;3.17;;;1.85;;
55663;SDS011;41540;57.880;12.164;2023-07-29T06:15:21;3.25;;;1.92;;
55663;SDS011;41540;57.880;12.164;2023-07-29T06:25:22;1.60;;;1.50;;
55663;SDS011;41540;57.880;12.164;2023-07-29T06:35:23;2.35;;;1.67;;
55663;SDS011;41540;57.880;12.164;2023-07-29T06:45:23;2.45;;;1.65;;
55663;SDS011;41540;57.880;12.164;2023-07-29T06:55:24;2.50;;;1.70;;
55663;SDS011;41540;57.880;12.164;2023-07-29T07:05:24;2.70;;;2.00;;
55663;SDS011;41540;57.880;12.164;2023-07-29T07:15:25;2.80;;;1.88;;
55663;SDS011;41540;57.880;12.164;2023-07-29T07:25:25;1.42;;;1.33;;
55663;SDS011;41540;57.880;12.164;2023-07-29T07:35:26;5.93;;;1.98;;
55663;SDS011;41540;57.880;12.164;2023-07-29T07:45:26;3.10;;;1.93;;
55663;SDS011;41540;57.880;12.164;2023-07-29T07:55:27;2.40;;;1.83;;
55663;SDS011;41540;57.880;12.164;2023-07-29T08:05:27;3.15;;;1.63;;
55663;SDS011;41540;57.880;12.164;2023-07-29T08:15:27;2.97;;;1.90;;
55663;SDS011;41540;57.880;12.164;2023-07-29T08:25:28;2.15;;;1.95;;
55663;SDS011;41540;57.880;12.164;2023-07-29T08:35:29;2.40;;;2.13;;
55663;SDS011;41540;57.880;12.164;2023-07-29T08:45:29;1.97;;;1.77;;
55663;SDS011;41540;57.880;12.164;2023-07-29T08:55:33;2.15;;;1.52;;
55663;SDS011;41540;57.880;12.164;2023-07-29T09:05:34;2.22;;;2.03;;
55663;SDS011;41540;57.880;12.164;2023-07-29T09:15:35;2.80;;;2.22;;
55663;SDS011;41540;57.880;12.164;2023-07-29T09:25:37;4.05;;;1.67;;
55663;SDS011;41540;57.880;12.164;2023-07-29T09:35:38;3.75;;;2.10;;
55663;SDS011;41540;57.880;12.164;2023-07-29T09:45:39;3.30;;;2.25;;
55663;SDS011;41540;57.880;12.164;2023-07-29T09:55:39;8.07;;;2.83;;
55663;SDS011;41540;57.880;12.164;2023-07-29T10:05:45;5.07;;;2.60;;
55663;SDS011;41540;57.880;12.164;2023-07-29T10:15:46;6.17;;;3.03;;
55663;SDS011;41540;57.880;12.164;2023-07-29T10:26:10;3.22;;;2.65;;
55663;SDS011;41540;57.880;12.164;2023-07-29T10:36:10;3.65;;;2.70;;
55663;SDS011;41540;57.880;12.164;2023-07-29T10:46:20;3.53;;;2.45;;
55663;SDS011;41540;57.880;12.164;2023-07-29T10:56:26;2.47;;;2.28;;
55663;SDS011;41540;57.880;12.164;2023-07-29T11:06:29;2.38;;;2.17;;
55663;SDS011;41540;57.880;12.164;2023-07-29T11:16:30;1.98;;;1.67;;
55663;SDS011;41540;57.880;12.164;2023-07-29T11:26:30;2.55;;;2.13;;
55663;SDS011;41540;57.880;12.164;2023-07-29T11:36:30;1.95;;;1.83;;
55663;SDS011;41540;57.880;12.164;2023-07-29T11:46:31;1.92;;;1.73;;
55663;SDS011;41540;57.880;12.164;2023-07-29T11:56:34;2.45;;;2.15;;
55663;SDS011;41540;57.880;12.164;2023-07-29T12:06:35;2.05;;;1.95;;
55663;SDS011;41540;57.880;12.164;2023-07-29T12:16:43;2.28;;;2.05;;
55663;SDS011;41540;57.880;12.164;2023-07-29T12:26:44;2.67;;;1.65;;
55663;SDS011;41540;57.880;12.164;2023-07-29T12:36:45;1.60;;;1.50;;
55663;SDS011;41540;57.880;12.164;2023-07-29T12:46:47;1.98;;;1.50;;
55663;SDS011;41540;57.880;12.164;2023-07-29T12:56:47;2.58;;;1.88;;
55663;SDS011;41540;57.880;12.164;2023-07-29T13:06:48;2.22;;;1.48;;
55663;SDS011;41540;57.880;12.164;2023-07-29T13:26:49;1.17;;;1.07;;
55663;SDS011;41540;57.880;12.164;2023-07-29T13:46:49;1.10;;;1.00;;
55663;SDS011;41540;57.880;12.164;2023-07-29T13:56:50;0.98;;;0.98;;
55663;SDS011;41540;57.880;12.164;2023-07-29T14:06:50;1.17;;;1.13;;
55663;SDS011;41540;57.880;12.164;2023-07-29T14:16:50;1.23;;;1.13;;
55663;SDS011;41540;57.880;12.164;2023-07-29T14:26:51;1.45;;;1.30;;
55663;SDS011;41540;57.880;12.164;2023-07-29T14:36:51;1.58;;;1.48;;
55663;SDS011;41540;57.880;12.164;2023-07-29T14:46:51;1.42;;;1.20;;
55663;SDS011;41540;57.880;12.164;2023-07-29T14:56:53;1.55;;;1.45;;
55663;SDS011;41540;57.880;12.164;2023-07-29T15:06:54;1.45;;;1.35;;
55663;SDS011;41540;57.880;12.164;2023-07-29T15:16:54;1.67;;;1.57;;
55663;SDS011;41540;57.880;12.164;2023-07-29T15:26:55;1.37;;;1.27;;
55663;SDS011;41540;57.880;12.164;2023-07-29T15:36:55;1.13;;;1.07;;
55663;SDS011;41540;57.880;12.164;2023-07-29T15:46:56;2.05;;;1.13;;
55663;SDS011;41540;57.880;12.164;2023-07-29T15:56:56;1.33;;;1.23;;
55663;SDS011;41540;57.880;12.164;2023-07-29T16:06:57;1.45;;;1.35;;
55663;SDS011;41540;57.880;12.164;2023-07-29T16:16:57;1.73;;;1.25;;
55663;SDS011;41540;57.880;12.164;2023-07-29T16:26:57;1.30;;;1.20;;
55663;SDS011;41540;57.880;12.164;2023-07-29T16:36:58;2.03;;;1.83;;
55663;SDS011;41540;57.880;12.164;2023-07-29T16:46:58;1.52;;;1.42;;
55663;SDS011;41540;57.880;12.164;2023-07-29T16:56:59;1.35;;;1.25;;
55663;SDS011;41540;57.880;12.164;2023-07-29T17:06:59;1.27;;;1.17;;
55663;SDS011;41540;57.880;12.164;2023-07-29T17:16:59;1.70;;;1.42;;
55663;SDS011;41540;57.880;12.164;2023-07-29T17:27:00;2.60;;;1.70;;
55663;SDS011;41540;57.880;12.164;2023-07-29T17:37:00;2.17;;;1.98;;
55663;SDS011;41540;57.880;12.164;2023-07-29T17:47:00;4.32;;;3.92;;
55663;SDS011;41540;57.880;12.164;2023-07-29T17:57:01;2.28;;;1.83;;
55663;SDS011;41540;57.880;12.164;2023-07-29T18:07:01;6.20;;;4.95;;
55663;SDS011;41540;57.880;12.164;2023-07-29T18:17:02;13.07;;;9.07;;
55663;SDS011;41540;57.880;12.164;2023-07-29T18:27:03;1.98;;;1.80;;
55663;SDS011;41540;57.880;12.164;2023-07-29T18:37:04;2.30;;;2.10;;
55663;SDS011;41540;57.880;12.164;2023-07-29T18:47:04;2.33;;;2.00;;
55663;SDS011;41540;57.880;12.164;2023-07-29T18:57:05;1.92;;;1.50;;
55663;SDS011;41540;57.880;12.164;2023-07-29T19:07:06;2.17;;;2.00;;
55663;SDS011;41540;57.880;12.164;2023-07-29T19:17:06;3.67;;;2.17;;
55663;SDS011;41540;57.880;12.164;2023-07-29T19:27:07;5.07;;;2.38;;
55663;SDS011;41540;57.880;12.164;2023-07-29T19:37:07;2.60;;;2.40;;
55663;SDS011;41540;57.880;12.164;2023-07-29T19:47:10;2.70;;;2.13;;
55663;SDS011;41540;57.880;12.164;2023-07-29T19:57:12;3.00;;;2.80;;
55663;SDS011;41540;57.880;12.164;2023-07-29T20:07:12;2.58;;;2.38;;
55663;SDS011;41540;57.880;12.164;2023-07-29T20:17:12;2.45;;;2.25;;
55663;SDS011;41540;57.880;12.164;2023-07-29T20:27:16;2.67;;;2.35;;
55663;SDS011;41540;57.880;12.164;2023-07-29T20:37:17;3.05;;;2.60;;
55663;SDS011;41540;57.880;12.164;2023-07-29T20:47:18;2.88;;;2.67;;
55663;SDS011;41540;57.880;12.164;2023-07-29T20:57:18;3.70;;;2.70;;
55663;SDS011;41540;57.880;12.164;2023-07-29T21:07:18;2.50;;;2.30;;
55663;SDS011;41540;57.880;12.164;2023-07-29T21:17:19;4.45;;;2.78;;
55663;SDS011;41540;57.880;12.164;2023-07-29T21:27:19;3.05;;;2.85;;
55663;SDS011;41540;57.880;12.164;2023-07-29T21:37:20;3.40;;;3.10;;
55663;SDS011;41540;57.880;12.164;2023-07-29T21:47:20;6.15;;;3.33;;
55663;SDS011;41540;57.880;12.164;2023-07-29T21:57:21;4.97;;;3.13;;
55663;SDS011;41540;57.880;12.164;2023-07-29T22:07:21;4.13;;;3.03;;
55663;SDS011;41540;57.880;12.164;2023-07-29T22:17:22;3.78;;;3.47;;
55663;SDS011;41540;57.880;12.164;2023-07-29T22:27:22;4.15;;;3.53;;
55663;SDS011;41540;57.880;12.164;2023-07-29T22:37:23;4.72;;;4.32;;
55663;SDS011;41540;57.880;12.164;2023-07-29T22:47:23;5.07;;;4.68;;
55663;SDS011;41540;57.880;12.164;2023-07-29T22:57:24;4.65;;;4.25;;
55663;SDS011;41540;57.880;12.164;2023-07-29T23:07:24;4.72;;;4.32;;
55663;SDS011;41540;57.880;12.164;2023-07-29T23:17:24;5.85;;;4.82;;
55663;SDS011;41540;57.880;12.164;2023-07-29T23:27:25;7.43;;;4.47;;
55663;SDS011;41540;57.880;12.164;2023-07-29T23:37:25;5.43;;;5.03;;
55663;SDS011;41540;57.880;12.164;2023-07-29T23:47:25;5.30;;;4.80;;
55663;SDS011;41540;57.880;12.164;2023-07-29T23:57:26;7.72;;;5.78;;
